Time;durP1;ratioP1;P1;durP2;ratioP2;P2;SDS_P1;SDS_P2;PMS_P1;PMS_P2;Temp;Humidity;BMP_temperature;BMP_pressure;BME280_temperature;BME280_humidity;BME280_pressure;Samples;Min_cycle;Max_cycle;Signal;HPM_P1;HPM_P2
2024/01/21 00:01:40;;;;;;;33.97;10.80;;;-4.20;99.90;;;;;;5056863;28;20025;-67
2024/01/21 00:04:07;;;;;;;35.10;10.88;;;-4.20;99.90;;;;;;5057133;28;20081;-67
2024/01/21 00:06:32;;;;;;;35.10;10.98;;;-4.20;99.90;;;;;;5060439;28;20021;-67
2024/01/21 00:08:58;;;;;;;42.90;11.40;;;-4.30;99.90;;;;;;5057473;28;20017;-67
2024/01/21 00:11:23;;;;;;;34.17;11.65;;;-4.20;99.90;;;;;;5056639;28;20025;-67
2024/01/21 00:13:49;;;;;;;36.17;10.60;;;-3.90;99.90;;;;;;5057545;28;20099;-67
2024/01/21 00:16:15;;;;;;;37.67;11.63;;;-3.80;99.90;;;;;;5057521;28;20057;-67
2024/01/21 00:18:40;;;;;;;42.83;12.70;;;-3.80;99.90;;;;;;5056674;28;20063;-67
2024/01/21 00:21:06;;;;;;;30.77;10.73;;;-4.00;99.90;;;;;;5057100;28;20021;-67
2024/01/21 00:23:31;;;;;;;42.90;11.15;;;-3.70;99.90;;;;;;5057171;28;20025;-68
2024/01/21 00:25:58;;;;;;;32.50;11.05;;;-3.80;99.90;;;;;;5057469;28;20060;-68
2024/01/21 00:28:24;;;;;;;41.35;11.43;;;-3.80;99.90;;;;;;5056405;28;20021;-68
2024/01/21 00:30:50;;;;;;;38.58;11.75;;;-3.70;99.90;;;;;;5057589;28;20021;-68
2024/01/21 00:33:15;;;;;;;41.10;12.77;;;-3.60;99.90;;;;;;5056999;28;20108;-68
2024/01/21 00:35:41;;;;;;;38.55;10.50;;;-3.40;99.90;;;;;;5056894;28;20036;-68
2024/01/21 00:38:07;;;;;;;39.78;11.60;;;-3.30;99.90;;;;;;5056909;28;20033;-68
2024/01/21 00:40:33;;;;;;;41.33;12.93;;;-3.20;99.90;;;;;;5056842;28;20025;-67
2024/01/21 00:42:59;;;;;;;31.73;10.52;;;-3.30;99.90;;;;;;5056829;28;20201;-67
2024/01/21 00:45:26;;;;;;;47.45;13.75;;;-3.40;99.90;;;;;;5056592;28;20021;-67
2024/01/21 00:47:51;;;;;;;43.42;12.63;;;-3.60;99.90;;;;;;5055879;28;20113;-67
2024/01/21 00:50:17;;;;;;;38.13;12.05;;;-3.70;99.90;;;;;;5056012;28;20064;-67
2024/01/21 00:52:42;;;;;;;38.40;11.75;;;-3.60;99.90;;;;;;5056720;28;20028;-67
2024/01/21 00:55:08;;;;;;;37.90;11.73;;;-3.70;99.90;;;;;;5056819;28;20053;-67
2024/01/21 00:57:34;;;;;;;38.08;12.18;;;-3.70;99.90;;;;;;5056389;28;20028;-67
2024/01/21 00:59:59;;;;;;;36.60;10.35;;;-3.80;99.90;;;;;;5056671;28;20029;-68
2024/01/21 01:02:25;;;;;;;40.50;12.02;;;-3.70;99.90;;;;;;5056075;28;20032;-68
2024/01/21 01:04:51;;;;;;;39.95;11.23;;;-3.70;99.90;;;;;;5056683;28;20025;-67
2024/01/21 01:07:16;;;;;;;39.15;11.68;;;-4.10;99.90;;;;;;5056182;28;20048;-67
2024/01/21 01:09:42;;;;;;;42.55;12.07;;;-4.40;99.90;;;;;;5055809;28;20025;-68
2024/01/21 01:12:08;;;;;;;35.50;12.75;;;-4.40;99.90;;;;;;5056558;28;20032;-67
2024/01/21 01:14:33;;;;;;;39.33;13.10;;;-4.60;99.90;;;;;;5056553;28;20060;-67
2024/01/21 01:16:59;;;;;;;41.90;11.95;;;-4.60;99.90;;;;;;5055759;28;20055;-67
2024/01/21 01:19:25;;;;;;;46.42;12.20;;;-4.70;99.90;;;;;;5055613;28;20095;-67
2024/01/21 01:21:53;;;;;;;33.00;10.38;;;-4.60;99.90;;;;;;5056496;28;20021;-67
2024/01/21 01:24:19;;;;;;;45.10;11.38;;;-4.50;99.90;;;;;;5056454;28;20029;-67
2024/01/21 01:26:45;;;;;;;44.28;11.63;;;-4.70;99.90;;;;;;5055593;28;20028;-67
2024/01/21 01:29:10;;;;;;;36.00;10.43;;;-4.60;99.90;;;;;;5056666;28;20029;-67
2024/01/21 01:31:36;;;;;;;38.35;11.18;;;-4.40;99.90;;;;;;5056268;28;20025;-67
2024/01/21 01:34:02;;;;;;;46.05;13.32;;;-4.20;99.90;;;;;;5056511;28;20021;-67
2024/01/21 01:36:28;;;;;;;39.45;12.05;;;-4.40;99.90;;;;;;5056421;28;20025;-67
2024/01/21 01:38:53;;;;;;;46.60;11.35;;;-4.70;99.90;;;;;;5055587;28;20021;-67
2024/01/21 01:41:19;;;;;;;42.58;11.40;;;-4.80;99.90;;;;;;5055773;28;20041;-68
2024/01/21 01:43:44;;;;;;;49.97;13.10;;;-4.60;99.90;;;;;;5055528;28;20032;-68
2024/01/21 01:46:10;;;;;;;40.40;11.57;;;-4.50;99.90;;;;;;5055298;28;20036;-68
2024/01/21 01:48:36;;;;;;;35.00;11.23;;;-4.50;99.90;;;;;;5056230;28;20036;-68
2024/01/21 01:51:03;;;;;;;40.70;11.50;;;-4.50;99.90;;;;;;5055814;28;20023;-67
2024/01/21 01:53:30;;;;;;;39.10;12.45;;;-4.70;99.90;;;;;;5056311;28;20021;-67
2024/01/21 01:55:55;;;;;;;37.85;10.98;;;-4.80;99.90;;;;;;5056810;28;20035;-67
2024/01/21 01:58:27;;;;;;;33.97;10.63;;;-4.90;99.90;;;;;;5059005;28;20028;-67
2024/01/21 02:00:53;;;;;;;39.78;12.23;;;-4.90;99.90;;;;;;5058888;28;20029;-67
2024/01/21 02:03:19;;;;;;;46.53;12.20;;;-5.10;99.90;;;;;;5058838;28;20057;-68
2024/01/21 02:05:45;;;;;;;42.78;11.98;;;-4.90;99.90;;;;;;5058936;28;20025;-67
2024/01/21 02:08:11;;;;;;;42.20;13.50;;;-4.70;99.90;;;;;;5058799;28;20074;-67
2024/01/21 02:10:37;;;;;;;37.25;11.90;;;-4.60;99.90;;;;;;5058785;28;20025;-67
2024/01/21 02:13:02;;;;;;;42.75;13.43;;;-4.50;99.90;;;;;;5058980;28;20115;-67
2024/01/21 02:15:28;;;;;;;44.80;12.10;;;-4.60;99.90;;;;;;5058919;28;20031;-67
2024/01/21 02:17:53;;;;;;;48.78;12.20;;;-4.70;99.90;;;;;;5059058;28;20114;-67
2024/01/21 02:20:19;;;;;;;33.60;11.20;;;-4.90;99.90;;;;;;5059618;28;20031;-67
2024/01/21 02:22:46;;;;;;;47.45;12.77;;;-5.20;99.90;;;;;;5059441;28;20081;-67
2024/01/21 02:25:12;;;;;;;47.75;13.73;;;-5.20;99.90;;;;;;5059497;28;20017;-67
2024/01/21 02:27:40;;;;;;;45.33;11.90;;;-5.20;99.90;;;;;;5059237;28;20029;-67
2024/01/21 02:30:06;;;;;;;45.10;12.85;;;-5.10;99.90;;;;;;5059363;28;20092;-67
2024/01/21 02:32:32;;;;;;;47.85;14.00;;;-5.00;99.90;;;;;;5059377;28;20048;-67
2024/01/21 02:34:58;;;;;;;56.88;13.68;;;-5.10;99.90;;;;;;5058533;28;20025;-67
2024/01/21 02:37:23;;;;;;;89.45;15.73;;;-5.50;99.90;;;;;;5059328;28;20051;-67
2024/01/21 02:39:49;;;;;;;52.58;13.07;;;-5.80;99.90;;;;;;5059028;28;20029;-67
2024/01/21 02:42:14;;;;;;;45.35;11.82;;;-5.90;99.90;;;;;;5059035;28;20021;-67
2024/01/21 02:44:40;;;;;;;63.45;14.55;;;-5.80;99.90;;;;;;5058279;28;20029;-67
2024/01/21 02:47:05;;;;;;;60.03;13.40;;;-5.40;99.90;;;;;;5059096;28;20028;-67
2024/01/21 02:49:31;;;;;;;39.75;11.52;;;-5.70;99.90;;;;;;5057927;28;20024;-67
2024/01/21 02:51:57;;;;;;;46.22;12.10;;;-5.60;99.90;;;;;;5057953;28;20046;-67
2024/01/21 02:54:23;;;;;;;43.97;15.02;;;-5.40;99.90;;;;;;5058810;28;20044;-67
2024/01/21 02:56:49;;;;;;;42.28;11.52;;;-5.30;99.90;;;;;;5058794;28;20025;-67
2024/01/21 02:59:15;;;;;;;41.75;11.52;;;-5.20;99.90;;;;;;5057760;28;20052;-67
2024/01/21 03:01:40;;;;;;;42.38;13.45;;;-5.20;99.90;;;;;;5058902;28;20028;-67
2024/01/21 03:04:09;;;;;;;50.45;12.10;;;-5.20;99.90;;;;;;5058615;28;20031;-67
2024/01/21 03:06:34;;;;;;;44.28;12.93;;;-5.40;99.90;;;;;;5057786;28;20025;-67
2024/01/21 03:09:00;;;;;;;40.45;9.85;;;-5.60;99.90;;;;;;5057573;28;20017;-67
2024/01/21 03:11:25;;;;;;;34.92;11.02;;;-5.80;99.90;;;;;;5058091;28;20043;-67
2024/01/21 03:13:51;;;;;;;44.85;12.90;;;-5.60;99.90;;;;;;5058656;28;20021;-67
2024/01/21 03:16:16;;;;;;;43.97;13.23;;;-5.80;99.90;;;;;;5057568;28;20082;-67
2024/01/21 03:18:42;;;;;;;34.70;10.13;;;-5.90;99.90;;;;;;5057866;28;20029;-67
2024/01/21 03:21:08;;;;;;;39.38;10.60;;;-5.90;99.90;;;;;;5057833;28;20021;-67
2024/01/21 03:23:34;;;;;;;32.22;10.65;;;-5.70;99.90;;;;;;5058225;28;20033;-67
2024/01/21 03:26:00;;;;;;;36.45;10.35;;;-5.70;99.90;;;;;;5057519;28;20025;-67
2024/01/21 03:28:26;;;;;;;34.00;10.00;;;-5.70;99.90;;;;;;5057556;28;20017;-67
2024/01/21 03:30:51;;;;;;;33.28;10.48;;;-5.90;99.90;;;;;;5057176;28;20025;-67
2024/01/21 03:33:17;;;;;;;36.75;11.80;;;-6.10;99.90;;;;;;5057173;28;20021;-67
2024/01/21 03:35:43;;;;;;;30.02;9.23;;;-6.00;99.90;;;;;;5057595;28;20021;-67
2024/01/21 03:38:08;;;;;;;38.58;12.20;;;-5.90;99.90;;;;;;5057421;28;20021;-67
2024/01/21 03:40:34;;;;;;;42.88;11.50;;;-6.00;99.90;;;;;;5057875;28;20037;-67
2024/01/21 03:42:59;;;;;;;35.63;11.32;;;-6.00;99.90;;;;;;5058066;28;20036;-69
2024/01/21 03:45:25;;;;;;;35.15;10.30;;;-6.00;99.90;;;;;;5056978;28;20021;-69
2024/01/21 03:47:50;;;;;;;38.85;11.18;;;-5.80;99.90;;;;;;5057711;28;20090;-67
2024/01/21 03:50:18;;;;;;;38.65;11.75;;;-6.00;99.90;;;;;;5057032;28;20146;-67
2024/01/21 03:52:44;;;;;;;44.30;11.23;;;-6.00;99.90;;;;;;5056796;28;20017;-67
2024/01/21 03:55:10;;;;;;;39.65;10.98;;;-6.00;99.90;;;;;;5057879;28;20082;-67
2024/01/21 03:57:36;;;;;;;34.45;10.15;;;-5.90;99.90;;;;;;5056824;28;20107;-67
2024/01/21 04:00:02;;;;;;;28.75;11.07;;;-5.70;99.90;;;;;;5057472;28;20025;-67
2024/01/21 04:02:29;;;;;;;39.13;10.95;;;-5.80;99.90;;;;;;5056593;28;20103;-67
2024/01/21 04:04:55;;;;;;;37.20;10.13;;;-5.70;99.90;;;;;;5056476;28;20031;-67
2024/01/21 04:07:21;;;;;;;37.72;10.32;;;-5.80;99.90;;;;;;5057383;28;20021;-67
2024/01/21 04:09:47;;;;;;;38.38;12.07;;;-5.90;99.90;;;;;;5056528;28;20031;-67
2024/01/21 04:12:13;;;;;;;41.65;12.32;;;-6.20;99.90;;;;;;5056366;28;20025;-67
2024/01/21 04:14:39;;;;;;;36.65;10.88;;;-6.00;99.90;;;;;;5057428;28;20020;-67
2024/01/21 04:17:04;;;;;;;33.60;10.50;;;-6.00;99.90;;;;;;5056775;28;20036;-67
2024/01/21 04:19:30;;;;;;;35.00;11.90;;;-6.10;99.90;;;;;;5056769;28;20068;-67
2024/01/21 04:21:56;;;;;;;39.63;12.45;;;-6.00;99.90;;;;;;5057234;28;20040;-67
2024/01/21 04:24:22;;;;;;;42.40;12.30;;;-5.90;99.90;;;;;;5056406;28;20111;-67
2024/01/21 04:26:47;;;;;;;39.40;12.15;;;-5.80;99.90;;;;;;5056742;28;20116;-67
2024/01/21 04:29:13;;;;;;;42.03;13.38;;;-5.70;99.90;;;;;;5056641;28;20017;-67
2024/01/21 04:31:41;;;;;;;40.92;11.00;;;-5.60;99.90;;;;;;5057303;28;20032;-67
2024/01/21 04:34:07;;;;;;;39.45;11.63;;;-5.60;99.90;;;;;;5057052;28;20025;-67
2024/01/21 04:36:32;;;;;;;33.03;11.13;;;-5.50;99.90;;;;;;5056190;28;20021;-67
2024/01/21 04:38:58;;;;;;;33.80;11.10;;;-5.60;99.90;;;;;;5056323;28;20040;-67
2024/01/21 04:41:23;;;;;;;39.10;11.13;;;-5.60;99.90;;;;;;5055899;28;20033;-67
2024/01/21 04:43:49;;;;;;;37.83;11.55;;;-5.70;99.90;;;;;;5056906;28;20029;-67
2024/01/21 04:46:14;;;;;;;29.17;11.18;;;-5.70;99.90;;;;;;5057406;28;20064;-67
2024/01/21 04:48:40;;;;;;;37.80;10.75;;;-5.90;99.90;;;;;;5056945;28;20108;-67
2024/01/21 04:51:05;;;;;;;29.15;10.45;;;-5.90;99.90;;;;;;5056075;28;20112;-67
2024/01/21 04:53:31;;;;;;;33.83;9.98;;;-6.10;99.90;;;;;;5056911;28;20025;-67
2024/01/21 04:55:57;;;;;;;38.20;10.32;;;-5.90;99.90;;;;;;5056964;28;20025;-67
2024/01/21 04:58:22;;;;;;;42.55;11.02;;;-5.90;99.90;;;;;;5055826;28;20029;-67
2024/01/21 05:00:48;;;;;;;40.33;10.82;;;-5.90;99.90;;;;;;5055908;28;20024;-67
2024/01/21 05:03:13;;;;;;;35.95;11.15;;;-5.90;99.90;;;;;;5056746;28;20052;-67
2024/01/21 05:05:39;;;;;;;36.75;11.15;;;-6.10;99.90;;;;;;5055688;28;20029;-67
2024/01/21 05:08:04;;;;;;;35.15;10.68;;;-6.10;99.90;;;;;;5056743;28;20029;-67
2024/01/21 05:10:30;;;;;;;31.95;9.95;;;-5.90;99.90;;;;;;5055699;28;20036;-67
2024/01/21 05:12:55;;;;;;;40.42;13.20;;;-5.80;99.90;;;;;;5056053;28;20025;-67
2024/01/21 05:15:21;;;;;;;31.25;9.65;;;-5.80;99.90;;;;;;5056221;28;20021;-67
2024/01/21 05:17:46;;;;;;;34.70;11.07;;;-5.80;99.90;;;;;;5056460;28;20025;-67
2024/01/21 05:20:12;;;;;;;35.97;10.90;;;-6.20;99.90;;;;;;5056565;28;20029;-67
2024/01/21 05:22:38;;;;;;;35.33;10.00;;;-6.20;99.90;;;;;;5055860;28;20024;-67
2024/01/21 05:25:04;;;;;;;36.67;10.10;;;-6.20;99.90;;;;;;5055748;28;20025;-67
2024/01/21 05:27:30;;;;;;;31.10;10.30;;;-6.10;99.90;;;;;;5056369;28;20128;-67
2024/01/21 05:29:56;;;;;;;35.08;10.05;;;-6.00;99.90;;;;;;5055694;28;20021;-67
2024/01/21 05:32:21;;;;;;;30.58;9.57;;;-6.00;99.90;;;;;;5059039;28;20083;-67
2024/01/21 05:34:47;;;;;;;36.22;10.75;;;-5.80;99.90;;;;;;5059517;28;20017;-67
2024/01/21 05:37:12;;;;;;;36.60;10.20;;;-6.00;99.90;;;;;;5059685;28;20079;-67
2024/01/21 05:39:38;;;;;;;30.35;9.15;;;-6.10;99.90;;;;;;5059372;28;20037;-67
2024/01/21 05:42:05;;;;;;;29.88;9.98;;;-6.10;99.90;;;;;;5059245;28;20024;-67
2024/01/21 05:44:31;;;;;;;28.05;9.57;;;-6.30;99.90;;;;;;5059326;28;20025;-67
2024/01/21 05:46:57;;;;;;;29.17;8.93;;;-6.30;99.90;;;;;;5059193;28;20029;-67
2024/01/21 05:49:26;;;;;;;23.90;9.32;;;-6.20;99.90;;;;;;5060121;28;20025;-67
2024/01/21 05:51:52;;;;;;;33.97;10.63;;;-6.10;99.90;;;;;;5060036;28;20107;-67
2024/01/21 05:54:18;;;;;;;30.55;10.07;;;-6.00;99.90;;;;;;5059146;28;20111;-67
2024/01/21 05:56:44;;;;;;;31.55;10.38;;;-5.80;99.90;;;;;;5059048;28;20025;-67
2024/01/21 05:59:09;;;;;;;31.02;9.85;;;-5.60;99.90;;;;;;5059940;28;20032;-67
2024/01/21 06:01:35;;;;;;;37.22;8.93;;;-5.20;99.90;;;;;;5059964;28;20029;-67
2024/01/21 06:04:01;;;;;;;29.13;11.60;;;-5.10;99.90;;;;;;5058912;28;20039;-67
2024/01/21 06:06:27;;;;;;;27.80;9.52;;;-5.10;99.90;;;;;;5058750;28;20029;-67
2024/01/21 06:08:52;;;;;;;32.30;12.45;;;-5.10;99.90;;;;;;5059038;28;20070;-67
2024/01/21 06:11:19;;;;;;;28.75;9.82;;;-5.10;99.90;;;;;;5059128;28;20024;-67
2024/01/21 06:13:45;;;;;;;39.65;12.15;;;-4.90;99.90;;;;;;5059594;28;20017;-67
2024/01/21 06:16:16;;;;;;;31.45;10.68;;;-4.90;99.90;;;;;;5058955;28;20036;-67
2024/01/21 06:18:41;;;;;;;30.73;12.00;;;-4.90;99.90;;;;;;5059546;28;20029;-67
2024/01/21 06:21:07;;;;;;;34.15;12.05;;;-4.80;99.90;;;;;;5058551;28;20055;-67
2024/01/21 06:23:32;;;;;;;28.05;10.38;;;-4.70;99.90;;;;;;5059654;28;20040;-67
2024/01/21 06:25:58;;;;;;;23.85;10.48;;;-4.60;99.90;;;;;;5058729;28;20079;-67
2024/01/21 06:28:23;;;;;;;25.25;10.38;;;-4.30;99.90;;;;;;5059273;28;20029;-68
2024/01/21 06:30:49;;;;;;;32.17;9.75;;;-4.10;99.90;;;;;;5059704;28;20025;-67
2024/01/21 06:33:14;;;;;;;28.55;10.57;;;-4.10;99.90;;;;;;5058370;28;20105;-67
2024/01/21 06:35:40;;;;;;;28.70;9.73;;;-4.00;99.90;;;;;;5059225;28;20021;-67
2024/01/21 06:38:05;;;;;;;26.45;9.85;;;-3.90;99.90;;;;;;5059741;28;20021;-67
2024/01/21 06:40:31;;;;;;;28.65;9.88;;;-3.90;99.90;;;;;;5058270;28;20044;-67
2024/01/21 06:42:56;;;;;;;25.88;9.13;;;-3.80;99.90;;;;;;5058412;28;20029;-67
2024/01/21 06:45:23;;;;;;;29.70;10.20;;;-3.50;99.90;;;;;;5058515;28;20022;-67
2024/01/21 06:47:49;;;;;;;29.13;8.98;;;-3.40;99.90;;;;;;5058273;28;20025;-67
2024/01/21 06:50:14;;;;;;;30.90;9.75;;;-3.20;99.90;;;;;;5059071;28;20051;-67
2024/01/21 06:52:40;;;;;;;33.15;11.90;;;-3.30;99.90;;;;;;5058711;28;20029;-67
2024/01/21 06:55:06;;;;;;;28.85;10.75;;;-3.40;99.90;;;;;;5058735;28;20024;-67
2024/01/21 06:57:32;;;;;;;23.95;9.63;;;-3.70;99.90;;;;;;5058017;28;20079;-67
2024/01/21 06:59:58;;;;;;;28.38;10.63;;;-3.80;99.90;;;;;;5058861;28;20028;-67
2024/01/21 07:02:23;;;;;;;27.55;9.90;;;-3.80;99.90;;;;;;5057798;28;20029;-67
2024/01/21 07:04:49;;;;;;;24.83;9.95;;;-3.50;99.90;;;;;;5058118;28;20032;-68
2024/01/21 07:07:14;;;;;;;28.92;9.80;;;-3.40;99.90;;;;;;5057757;28;20032;-67
2024/01/21 07:09:43;;;;;;;28.13;9.50;;;-3.40;99.90;;;;;;5058204;28;20047;-67
2024/01/21 07:12:09;;;;;;;23.90;10.00;;;-3.40;99.90;;;;;;5057861;28;20036;-67
2024/01/21 07:14:34;;;;;;;27.17;9.13;;;-3.20;99.90;;;;;;5058037;28;20025;-68
2024/01/21 07:17:04;;;;;;;23.08;8.48;;;-3.30;99.90;;;;;;5057839;28;20033;-68
2024/01/21 07:19:29;;;;;;;27.25;8.38;;;-3.20;99.90;;;;;;5057724;28;20033;-68
2024/01/21 07:21:55;;;;;;;30.23;11.05;;;-3.20;99.90;;;;;;5057517;28;20048;-68
2024/01/21 07:24:21;;;;;;;35.58;11.60;;;-3.50;99.90;;;;;;5057888;28;20111;-68
2024/01/21 07:26:46;;;;;;;29.63;10.23;;;-3.60;99.90;;;;;;5058313;28;20035;-68
2024/01/21 07:29:13;;;;;;;19.58;7.97;;;-3.80;99.90;;;;;;5058270;28;20077;-68
2024/01/21 07:31:39;;;;;;;29.80;9.32;;;-3.80;99.90;;;;;;5058032;28;20027;-68
2024/01/21 07:34:09;;;;;;;25.35;9.48;;;-3.80;99.90;;;;;;5058110;28;20112;-68
2024/01/21 07:36:34;;;;;;;28.67;9.98;;;-3.80;99.90;;;;;;5057210;28;20029;-68
2024/01/21 07:39:00;;;;;;;28.63;9.32;;;-3.60;99.90;;;;;;5057066;28;20021;-68
2024/01/21 07:41:25;;;;;;;33.55;10.27;;;-3.40;99.90;;;;;;5058489;28;20086;-68
2024/01/21 07:43:51;;;;;;;30.50;9.95;;;-3.20;99.90;;;;;;5057920;28;20040;-68
2024/01/21 07:46:17;;;;;;;28.55;10.52;;;-3.20;99.90;;;;;;5057771;28;20017;-68
2024/01/21 07:48:42;;;;;;;25.55;10.65;;;-3.10;99.90;;;;;;5058233;28;20138;-68
2024/01/21 07:51:09;;;;;;;28.45;9.57;;;-3.10;99.90;;;;;;5057820;28;20045;-68
2024/01/21 07:53:34;;;;;;;30.17;10.57;;;-3.30;99.90;;;;;;5056042;28;20116;-68
2024/01/21 07:56:00;;;;;;;23.30;9.10;;;-3.30;99.90;;;;;;5057727;28;20073;-68
2024/01/21 07:58:25;;;;;;;31.25;10.60;;;-3.10;99.90;;;;;;5057695;28;20100;-68
2024/01/21 08:00:51;;;;;;;28.88;10.20;;;-3.00;99.90;;;;;;5057734;28;20021;-68
2024/01/21 08:03:17;;;;;;;25.23;9.93;;;-3.00;99.90;;;;;;5056719;28;20021;-68
2024/01/21 08:05:43;;;;;;;31.10;10.00;;;-3.00;99.90;;;;;;5056483;28;20059;-67
2024/01/21 08:08:08;;;;;;;26.20;9.45;;;-2.90;99.90;;;;;;5056668;28;20052;-68
2024/01/21 08:10:34;;;;;;;35.60;10.60;;;-3.00;99.90;;;;;;5056556;28;20021;-68
2024/01/21 08:13:00;;;;;;;28.63;9.93;;;-3.10;99.90;;;;;;5056653;28;20111;-68
2024/01/21 08:15:25;;;;;;;34.92;11.15;;;-3.10;99.90;;;;;;5057428;28;20029;-68
2024/01/21 08:17:51;;;;;;;28.35;9.57;;;-3.20;99.90;;;;;;5057299;28;20044;-68
2024/01/21 08:20:16;;;;;;;28.27;10.95;;;-3.20;99.90;;;;;;5057397;28;20025;-68
2024/01/21 08:22:43;;;;;;;31.77;11.02;;;-3.20;99.90;;;;;;5056342;28;20028;-68
2024/01/21 08:25:09;;;;;;;29.20;10.50;;;-3.20;99.90;;;;;;5057158;28;20047;-68
2024/01/21 08:27:34;;;;;;;30.50;10.32;;;-3.20;99.90;;;;;;5056313;28;20021;-68
2024/01/21 08:30:02;;;;;;;31.67;10.77;;;-3.10;99.90;;;;;;5057113;28;20038;-67
2024/01/21 08:32:28;;;;;;;30.25;10.10;;;-2.90;99.90;;;;;;5057096;28;20096;-67
2024/01/21 08:34:53;;;;;;;34.33;11.18;;;-2.90;99.90;;;;;;5056260;28;20119;-67
2024/01/21 08:37:19;;;;;;;33.70;10.43;;;-3.10;99.90;;;;;;5057310;28;20109;-67
2024/01/21 08:39:45;;;;;;;44.70;10.98;;;-3.40;99.90;;;;;;5056157;28;20150;-67
2024/01/21 08:42:11;;;;;;;36.00;12.00;;;-3.70;99.90;;;;;;5057131;28;20029;-68
2024/01/21 08:44:36;;;;;;;31.02;10.02;;;-3.90;99.90;;;;;;5055993;28;20052;-67
2024/01/21 08:47:02;;;;;;;35.78;11.57;;;-3.90;99.90;;;;;;5056063;28;20061;-67
2024/01/21 08:49:28;;;;;;;32.55;10.95;;;-3.70;99.90;;;;;;5056007;28;20025;-67
2024/01/21 08:51:53;;;;;;;37.78;12.45;;;-3.60;99.90;;;;;;5056248;28;20024;-68
2024/01/21 08:54:19;;;;;;;36.97;11.02;;;-3.60;99.90;;;;;;5057471;28;20062;-68
2024/01/21 08:56:45;;;;;;;29.92;10.25;;;-3.80;99.90;;;;;;5055970;28;20029;-68
2024/01/21 08:59:10;;;;;;;34.40;11.27;;;-3.60;99.90;;;;;;5056046;28;20035;-68
2024/01/21 09:01:36;;;;;;;32.53;10.55;;;-3.60;99.90;;;;;;5056045;28;20025;-68
2024/01/21 09:04:02;;;;;;;41.17;13.05;;;-3.50;99.90;;;;;;5057001;28;20095;-68
2024/01/21 09:06:27;;;;;;;35.22;10.50;;;-3.70;99.90;;;;;;5059767;28;20048;-68
2024/01/21 09:08:54;;;;;;;34.00;11.32;;;-3.80;99.90;;;;;;5059969;28;20025;-68
2024/01/21 09:11:21;;;;;;;36.17;10.95;;;-3.60;99.90;;;;;;5060232;28;20025;-68
2024/01/21 09:13:46;;;;;;;38.20;12.23;;;-3.60;99.90;;;;;;5060697;28;20017;-68
2024/01/21 09:16:16;;;;;;;38.92;12.30;;;-3.40;99.90;;;;;;5061141;28;20037;-68
2024/01/21 09:18:42;;;;;;;27.55;11.45;;;-3.40;99.90;;;;;;5060693;28;20021;-68
2024/01/21 09:21:07;;;;;;;31.55;11.05;;;-3.40;99.90;;;;;;5060601;28;20032;-68
2024/01/21 09:23:33;;;;;;;31.17;10.23;;;-3.70;99.90;;;;;;5059820;28;20061;-69
2024/01/21 09:25:58;;;;;;;43.28;13.27;;;-3.50;99.90;;;;;;5059619;28;20111;-68
2024/01/21 09:28:24;;;;;;;43.70;11.75;;;-3.50;99.90;;;;;;5060609;28;20040;-68
2024/01/21 09:30:49;;;;;;;39.55;11.73;;;-3.50;99.90;;;;;;5060267;28;20040;-69
2024/01/21 09:33:17;;;;;;;42.83;12.90;;;-3.20;99.90;;;;;;5059412;28;20017;-69
2024/01/21 09:35:42;;;;;;;35.38;12.02;;;-3.10;99.90;;;;;;5059562;28;20020;-69
2024/01/21 09:38:10;;;;;;;44.88;13.73;;;-2.80;99.90;;;;;;5060307;28;20021;-68
2024/01/21 09:40:36;;;;;;;42.47;13.45;;;-2.80;99.90;;;;;;5060275;28;20120;-68
2024/01/21 09:43:02;;;;;;;50.08;13.32;;;-2.80;99.90;;;;;;5060410;28;20106;-68
2024/01/21 09:45:31;;;;;;;54.08;14.00;;;-2.60;99.90;;;;;;5060211;28;20024;-68
2024/01/21 09:47:57;;;;;;;52.78;15.35;;;-2.90;99.90;;;;;;5060140;28;20075;-68
2024/01/21 09:50:25;;;;;;;43.25;14.00;;;-3.00;99.90;;;;;;5060122;28;20032;-68
2024/01/21 09:52:51;;;;;;;49.47;14.73;;;-3.00;99.90;;;;;;5060060;28;20060;-68
2024/01/21 09:55:16;;;;;;;57.28;16.42;;;-3.00;99.90;;;;;;5059952;28;20024;-68
2024/01/21 09:57:42;;;;;;;64.57;17.98;;;-3.00;99.90;;;;;;5059202;28;20025;-68
2024/01/21 10:00:12;;;;;;;53.95;16.17;;;-3.60;99.90;;;;;;5059081;28;20029;-68
2024/01/21 10:02:38;;;;;;;53.85;16.23;;;-3.60;99.90;;;;;;5060053;28;20075;-68
2024/01/21 10:05:04;;;;;;;60.30;16.13;;;-3.60;99.90;;;;;;5059286;28;20036;-68
2024/01/21 10:07:31;;;;;;;55.83;15.48;;;-3.70;99.90;;;;;;5058665;28;20025;-68
2024/01/21 10:09:57;;;;;;;54.63;14.85;;;-3.60;99.90;;;;;;5059854;28;20021;-68
2024/01/21 10:12:26;;;;;;;56.08;16.88;;;-3.50;99.90;;;;;;5058939;28;20025;-68
2024/01/21 10:14:52;;;;;;;54.08;16.35;;;-3.60;99.90;;;;;;5059835;28;20021;-68
2024/01/21 10:17:24;;;;;;;54.17;15.25;;;-3.70;99.90;;;;;;5058594;28;20032;-68
2024/01/21 10:19:53;;;;;;;49.45;15.63;;;-3.30;99.90;;;;;;5058605;28;20036;-68
2024/01/21 10:22:20;;;;;;;53.50;14.63;;;-3.30;99.90;;;;;;5059475;28;20107;-68
2024/01/21 10:24:48;;;;;;;59.13;15.77;;;-3.30;99.90;;;;;;5058701;28;20079;-68
2024/01/21 10:27:15;;;;;;;57.22;15.02;;;-3.30;99.90;;;;;;5059309;28;20112;-68
2024/01/21 10:29:43;;;;;;;61.00;17.67;;;-3.60;99.90;;;;;;5058459;28;20112;-68
2024/01/21 10:32:09;;;;;;;60.13;18.70;;;-3.60;99.90;;;;;;5058522;28;20025;-68
2024/01/21 10:34:44;;;;;;;57.10;15.73;;;-3.80;99.90;;;;;;5059323;28;20013;-68
2024/01/21 10:37:13;;;;;;;59.25;16.95;;;-3.60;99.90;;;;;;5059501;28;20036;-68
2024/01/21 10:39:40;;;;;;;51.00;16.38;;;-3.70;99.90;;;;;;5058062;28;20035;-68
2024/01/21 10:42:07;;;;;;;61.25;16.83;;;-3.70;99.90;;;;;;5058261;28;20033;-68
2024/01/21 10:44:35;;;;;;;54.25;15.07;;;-3.80;99.90;;;;;;5058997;28;20025;-68
2024/01/21 10:47:03;;;;;;;58.85;14.73;;;-3.60;99.90;;;;;;5059039;28;20025;-68
2024/01/21 10:49:31;;;;;;;46.55;15.68;;;-3.20;99.90;;;;;;5059003;28;20056;-69
2024/01/21 10:51:57;;;;;;;54.70;14.15;;;-3.10;99.90;;;;;;5058883;28;20017;-69
2024/01/21 10:54:25;;;;;;;56.67;16.48;;;-3.10;99.90;;;;;;5058489;28;20028;-68
2024/01/21 10:56:50;;;;;;;49.90;14.15;;;-3.10;99.90;;;;;;5059010;28;20031;-68
2024/01/21 10:59:16;;;;;;;48.50;15.82;;;-2.90;99.90;;;;;;5058982;28;20029;-68
2024/01/21 11:01:43;;;;;;;54.72;14.60;;;-2.90;99.90;;;;;;5058723;28;20027;-68
2024/01/21 11:04:12;;;;;;;51.80;14.40;;;-2.90;99.90;;;;;;5058839;28;20031;-68
2024/01/21 11:06:42;;;;;;;52.05;13.60;;;-2.80;99.90;;;;;;5057741;28;20112;-68
2024/01/21 11:09:08;;;;;;;55.67;14.73;;;-2.80;99.90;;;;;;5058794;28;20021;-68
2024/01/21 11:11:46;;;;;;;57.63;17.40;;;-2.90;99.90;;;;;;5057926;28;20025;-68
2024/01/21 11:14:38;;;;;;;58.97;15.00;;;-2.90;99.90;;;;;;5058607;28;20025;-68
2024/01/21 11:17:10;;;;;;;51.22;14.52;;;-2.80;99.90;;;;;;5058545;28;20103;-68
2024/01/21 11:19:39;;;;;;;46.33;14.23;;;-2.40;99.90;;;;;;5057519;28;20029;-68
2024/01/21 11:22:05;;;;;;;49.90;14.63;;;-2.20;99.90;;;;;;5058403;28;20025;-68
2024/01/21 11:24:30;;;;;;;47.40;15.57;;;-1.90;99.90;;;;;;5057307;28;20025;-68
2024/01/21 11:26:57;;;;;;;46.22;14.02;;;-1.70;99.90;;;;;;5057408;28;20029;-68
2024/01/21 11:29:26;;;;;;;46.92;15.02;;;-1.50;99.90;;;;;;5058227;28;20017;-68
2024/01/21 11:32:01;;;;;;;49.55;15.55;;;-1.50;99.90;;;;;;5057140;28;20029;-68
2024/01/21 11:34:39;;;;;;;54.50;15.57;;;-1.70;99.90;;;;;;5058296;28;20033;-68
2024/01/21 11:37:09;;;;;;;48.20;15.48;;;-1.70;99.90;;;;;;5058131;28;20025;-68
2024/01/21 11:39:36;;;;;;;55.47;15.05;;;-1.50;99.90;;;;;;5057982;28;20021;-68
2024/01/21 11:42:03;;;;;;;58.25;15.07;;;-1.60;99.90;;;;;;5056979;28;20032;-68
2024/01/21 11:44:30;;;;;;;49.42;15.13;;;-1.70;99.90;;;;;;5058073;28;20052;-68
2024/01/21 11:46:57;;;;;;;59.45;17.80;;;-1.40;99.90;;;;;;5056934;28;20071;-68
2024/01/21 11:49:24;;;;;;;49.60;14.15;;;-1.40;99.90;;;;;;5056859;28;20042;-68
2024/01/21 11:51:50;;;;;;;49.45;15.73;;;-1.20;99.90;;;;;;5057828;28;20021;-68
2024/01/21 11:54:16;;;;;;;53.72;16.08;;;-0.80;99.90;;;;;;5056760;28;20060;-68
2024/01/21 11:56:42;;;;;;;56.60;15.07;;;-0.50;99.90;;;;;;5056914;28;20064;-68
2024/01/21 11:59:12;;;;;;;49.13;15.45;;;-0.50;99.90;;;;;;5057102;28;20025;-68
2024/01/21 12:01:39;;;;;;;60.25;16.75;;;-0.70;99.90;;;;;;5057017;28;20074;-68
2024/01/21 12:04:09;;;;;;;47.65;15.30;;;-0.90;99.90;;;;;;5057655;28;20029;-68
2024/01/21 12:06:39;;;;;;;57.72;17.17;;;-0.70;99.90;;;;;;5057543;28;20103;-69
2024/01/21 12:09:05;;;;;;;52.28;14.82;;;-0.80;99.90;;;;;;5057807;28;20021;-69
2024/01/21 12:11:32;;;;;;;50.15;16.23;;;-1.20;99.90;;;;;;5057666;28;20021;-68
2024/01/21 12:13:58;;;;;;;60.05;17.08;;;-1.20;99.90;;;;;;5057631;28;20017;-69
2024/01/21 12:16:23;;;;;;;50.78;14.45;;;-1.40;99.90;;;;;;5057340;28;20028;-69
2024/01/21 12:18:49;;;;;;;54.45;15.45;;;-1.30;99.90;;;;;;5057470;28;20025;-70
2024/01/21 12:21:15;;;;;;;52.67;16.77;;;-0.90;99.90;;;;;;5057125;28;20063;-69
2024/01/21 12:23:42;;;;;;;45.10;15.57;;;-0.80;99.90;;;;;;5056535;28;20029;-69